createdAt,value
2019-01-12T00:00:34.767Z,6.13
2019-01-12T00:03:05.616Z,6.15
2019-01-12T00:05:36.377Z,6.43
2019-01-12T00:08:07.136Z,6.20
2019-01-12T00:10:37.911Z,8.10
2019-01-12T00:13:08.691Z,7.47
2019-01-12T00:15:39.445Z,7.40
2019-01-12T00:18:10.211Z,6.23
2019-01-12T00:20:40.968Z,7.13
2019-01-12T00:23:11.736Z,7.40
2019-01-12T00:25:42.526Z,7.10
2019-01-12T00:28:13.295Z,8.93
2019-01-12T00:30:44.052Z,7.83
2019-01-12T00:33:14.829Z,8.43
2019-01-12T00:35:45.586Z,7.43
2019-01-12T00:38:16.426Z,7.20
2019-01-12T00:40:47.190Z,7.87
2019-01-12T00:43:17.964Z,8.37
2019-01-12T00:45:48.720Z,7.63
2019-01-12T00:48:19.550Z,9.20
2019-01-12T00:50:50.317Z,8.73
2019-01-12T00:53:21.085Z,8.93
2019-01-12T00:55:51.837Z,9.10
2019-01-12T00:58:22.610Z,7.70
2019-01-12T01:00:53.429Z,9.00
2019-01-12T01:03:24.151Z,7.37
2019-01-12T01:05:54.989Z,7.67
2019-01-12T01:08:25.756Z,7.97
2019-01-12T01:10:56.516Z,8.90
2019-01-12T01:13:27.282Z,8.57
2019-01-12T01:15:58.047Z,8.97
2019-01-12T01:18:28.817Z,8.67
2019-01-12T01:20:59.588Z,7.10
2019-01-12T01:23:30.362Z,8.10
2019-01-12T01:26:01.113Z,8.10
2019-01-12T01:28:31.874Z,8.33
2019-01-12T01:31:02.959Z,8.07
2019-01-12T01:33:33.723Z,7.90
2019-01-12T01:36:04.580Z,9.03
2019-01-12T01:38:35.394Z,9.10
2019-01-12T01:41:06.145Z,9.20
2019-01-12T01:43:36.916Z,8.80
2019-01-12T01:46:07.672Z,8.80
2019-01-12T01:48:38.465Z,8.60
2019-01-12T01:51:09.230Z,8.70
2019-01-12T01:53:39.985Z,9.17
2019-01-12T01:56:10.765Z,8.90
2019-01-12T01:58:41.523Z,8.43
2019-01-12T02:01:12.296Z,9.33
2019-01-12T02:03:43.051Z,10.10
2019-01-12T02:06:13.823Z,8.50
2019-01-12T02:08:44.586Z,8.80
2019-01-12T02:11:15.355Z,7.53
2019-01-12T02:13:46.117Z,8.73
2019-01-12T02:16:16.868Z,10.00
2019-01-12T02:18:47.626Z,9.37
2019-01-12T02:21:18.395Z,8.60
2019-01-12T02:23:49.413Z,9.20
2019-01-12T02:26:20.190Z,9.20
2019-01-12T02:28:50.951Z,8.43
2019-01-12T02:31:21.716Z,9.17
2019-01-12T02:33:52.467Z,9.80
2019-01-12T02:36:23.241Z,7.00
2019-01-12T02:38:54.012Z,8.60
2019-01-12T02:41:24.783Z,9.13
2019-01-12T02:43:55.548Z,8.57
2019-01-12T02:46:26.397Z,8.10
2019-01-12T02:48:57.147Z,9.33
2019-01-12T02:51:27.915Z,9.40
2019-01-12T02:53:58.661Z,9.97
2019-01-12T02:56:29.440Z,9.30
2019-01-12T02:59:00.188Z,10.13
2019-01-12T03:01:30.969Z,9.03
2019-01-12T03:04:01.849Z,10.50
2019-01-12T03:06:32.621Z,9.70
2019-01-12T03:09:06.094Z,9.90
2019-01-12T03:11:36.861Z,10.32
2019-01-12T03:14:07.628Z,10.10
2019-01-12T03:16:38.476Z,10.37
2019-01-12T03:19:09.243Z,8.97
2019-01-12T03:21:40.003Z,10.10
2019-01-12T03:24:10.770Z,10.90
2019-01-12T03:26:41.538Z,9.80
2019-01-12T03:29:12.298Z,9.63
2019-01-12T03:31:43.082Z,9.27
2019-01-12T03:34:13.932Z,11.77
2019-01-12T03:36:44.770Z,9.30
2019-01-12T03:39:15.540Z,8.97
2019-01-12T03:41:46.318Z,8.03
2019-01-12T03:44:17.090Z,9.13
2019-01-12T03:46:47.854Z,9.70
2019-01-12T03:49:18.617Z,9.17
2019-01-12T03:51:49.410Z,8.90
2019-01-12T03:54:20.198Z,9.73
2019-01-12T03:56:50.978Z,10.60
2019-01-12T03:59:21.734Z,9.93
2019-01-12T04:01:52.506Z,10.37
2019-01-12T04:04:23.258Z,9.50
2019-01-12T04:06:54.027Z,9.17
2019-01-12T04:09:25.135Z,9.87
2019-01-12T04:11:55.898Z,9.53
2019-01-12T04:14:26.709Z,9.00
2019-01-12T04:16:57.455Z,9.33
2019-01-12T04:19:28.205Z,9.40
2019-01-12T04:21:58.974Z,10.40
2019-01-12T04:24:29.728Z,9.93
2019-01-12T04:27:00.490Z,10.60
2019-01-12T04:29:31.243Z,10.60
2019-01-12T04:32:02.011Z,9.27
2019-01-12T04:34:32.818Z,11.90
2019-01-12T04:37:03.581Z,10.63
2019-01-12T04:39:34.353Z,9.73
2019-01-12T04:42:05.122Z,9.43
2019-01-12T04:44:35.879Z,9.83
2019-01-12T04:47:06.762Z,8.50
2019-01-12T04:49:37.538Z,10.00
2019-01-12T04:52:08.285Z,9.33
2019-01-12T04:54:39.051Z,9.30
2019-01-12T04:57:09.822Z,9.43
2019-01-12T04:59:40.569Z,9.13
2019-01-12T05:02:11.595Z,9.63
2019-01-12T05:04:42.360Z,9.35
2019-01-12T05:07:13.140Z,10.00
2019-01-12T05:09:43.919Z,10.30
2019-01-12T05:12:14.672Z,10.07
2019-01-12T05:14:45.438Z,8.93
2019-01-12T05:17:16.194Z,9.80
2019-01-12T05:19:46.972Z,11.40
2019-01-12T05:22:17.737Z,8.90
2019-01-12T05:24:48.495Z,9.50
2019-01-12T05:27:19.251Z,9.77
2019-01-12T05:29:50.022Z,10.20
2019-01-12T05:32:20.779Z,9.93
2019-01-12T05:34:51.566Z,9.27
2019-01-12T05:37:22.338Z,9.33
2019-01-12T05:39:53.100Z,9.70
2019-01-12T05:42:23.851Z,9.50
2019-01-12T05:44:54.614Z,9.17
2019-01-12T05:47:25.371Z,9.57
2019-01-12T05:49:56.134Z,9.87
2019-01-12T05:52:26.886Z,9.30
2019-01-12T05:54:57.655Z,10.50
2019-01-12T05:57:28.413Z,10.97
2019-01-12T05:59:59.178Z,10.67
2019-01-12T06:02:29.927Z,12.23
2019-01-12T06:05:00.714Z,11.90
2019-01-12T06:07:31.485Z,11.77
2019-01-12T06:10:05.161Z,13.27
2019-01-12T06:12:35.926Z,11.80
2019-01-12T06:15:08.695Z,15.63
2019-01-12T06:17:39.471Z,13.50
2019-01-12T06:20:12.438Z,13.60
2019-01-12T06:22:43.190Z,13.28
2019-01-12T06:25:13.957Z,14.53
2019-01-12T06:27:44.710Z,13.93
2019-01-12T06:30:16.664Z,13.13
2019-01-12T06:32:47.438Z,14.05
2019-01-12T06:35:18.219Z,16.00
2019-01-12T06:37:48.974Z,13.03
2019-01-12T06:40:19.738Z,12.53
2019-01-12T06:42:50.504Z,14.20
2019-01-12T06:45:21.267Z,15.30
2019-01-12T06:47:52.018Z,13.77
2019-01-12T06:50:22.793Z,14.00
2019-01-12T06:52:53.554Z,13.00
2019-01-12T06:55:24.322Z,14.50
2019-01-12T06:57:55.091Z,12.50
2019-01-12T07:00:25.868Z,10.60
2019-01-12T07:02:56.617Z,11.97
2019-01-12T07:05:27.400Z,12.00
2019-01-12T07:07:58.400Z,12.00
2019-01-12T07:10:29.171Z,12.65
2019-01-12T07:12:59.924Z,10.90
2019-01-12T07:15:30.692Z,10.83
2019-01-12T07:18:01.469Z,12.43
2019-01-12T07:20:32.278Z,11.90
2019-01-12T07:23:03.034Z,12.13
2019-01-12T07:25:33.809Z,12.03
2019-01-12T07:28:04.569Z,13.43
2019-01-12T07:30:35.338Z,11.90
2019-01-12T07:33:06.095Z,12.13
2019-01-12T07:35:36.882Z,11.40
2019-01-12T07:38:07.657Z,12.10
2019-01-12T07:40:38.430Z,10.00
2019-01-12T07:43:09.187Z,10.80
2019-01-12T07:45:39.965Z,10.80
2019-01-12T07:48:10.728Z,10.80
2019-01-12T07:50:41.489Z,10.13
2019-01-12T07:53:12.249Z,10.23
2019-01-12T07:55:43.013Z,11.10
2019-01-12T07:58:13.766Z,11.50
2019-01-12T08:00:44.558Z,10.70
2019-01-12T08:03:15.322Z,11.53
2019-01-12T08:05:46.082Z,10.20
2019-01-12T08:08:16.838Z,12.20
2019-01-12T08:10:47.605Z,11.00
2019-01-12T08:13:18.363Z,9.57
2019-01-12T08:15:49.127Z,10.07
2019-01-12T08:18:19.873Z,10.07
2019-01-12T08:20:51.071Z,10.80
2019-01-12T08:23:21.839Z,10.65
2019-01-12T08:25:52.602Z,9.47
2019-01-12T08:28:23.369Z,11.57
2019-01-12T08:30:54.188Z,10.30
2019-01-12T08:33:24.944Z,11.60
2019-01-12T08:35:55.753Z,9.97
2019-01-12T08:38:26.533Z,8.90
2019-01-12T08:40:57.284Z,9.87
2019-01-12T08:43:28.054Z,10.40
2019-01-12T08:45:58.824Z,10.07
2019-01-12T08:48:29.579Z,10.83
2019-01-12T08:51:00.349Z,10.53
2019-01-12T08:53:31.124Z,10.43
2019-01-12T08:56:01.981Z,10.00
2019-01-12T08:58:32.737Z,10.93
2019-01-12T09:01:03.900Z,9.77
2019-01-12T09:03:34.679Z,9.43
2019-01-12T09:06:05.790Z,10.57
2019-01-12T09:08:36.571Z,9.53
2019-01-12T09:11:07.340Z,9.90
2019-01-12T09:13:38.113Z,9.97
2019-01-12T09:16:08.864Z,9.63
2019-01-12T09:18:39.634Z,8.47
2019-01-12T09:21:10.393Z,8.77
2019-01-12T09:23:41.163Z,8.40
2019-01-12T09:26:11.925Z,8.83
2019-01-12T09:28:42.701Z,8.33
2019-01-12T09:31:13.453Z,8.20
2019-01-12T09:33:44.222Z,8.47
2019-01-12T09:36:14.974Z,8.90
2019-01-12T09:38:45.753Z,8.80
2019-01-12T09:41:16.512Z,7.70
2019-01-12T09:43:47.274Z,7.50
2019-01-12T09:46:18.031Z,7.90
2019-01-12T09:48:48.804Z,7.90
2019-01-12T09:51:19.571Z,8.23
2019-01-12T09:53:50.344Z,6.90
2019-01-12T09:56:21.113Z,7.60
2019-01-12T09:58:51.880Z,8.20
2019-01-12T10:01:22.630Z,7.57
2019-01-12T10:03:53.408Z,7.60
2019-01-12T10:06:24.179Z,7.03
2019-01-12T10:08:54.954Z,7.43
2019-01-12T10:11:25.715Z,6.90
2019-01-12T10:13:56.474Z,7.70
2019-01-12T10:16:28.263Z,7.47
2019-01-12T10:18:59.043Z,6.50
2019-01-12T10:21:29.801Z,5.43
2019-01-12T10:24:00.589Z,5.13
2019-01-12T10:26:31.336Z,6.50
2019-01-12T10:29:02.115Z,6.60
2019-01-12T10:31:32.871Z,6.30
2019-01-12T10:34:03.641Z,5.67
2019-01-12T10:36:34.386Z,4.90
2019-01-12T10:39:05.960Z,4.93
2019-01-12T10:41:36.729Z,5.53
2019-01-12T10:44:07.501Z,4.73
2019-01-12T10:46:38.266Z,4.90
2019-01-12T10:49:09.024Z,4.80
2019-01-12T10:51:39.903Z,4.10
2019-01-12T10:54:10.673Z,4.20
2019-01-12T10:56:41.438Z,3.77
2019-01-12T10:59:12.202Z,4.30
2019-01-12T11:01:42.974Z,4.67
2019-01-12T11:04:13.732Z,3.57
2019-01-12T11:06:44.491Z,3.87
2019-01-12T11:09:15.261Z,3.27
2019-01-12T11:11:46.027Z,3.63
2019-01-12T11:14:16.798Z,3.50
2019-01-12T11:16:47.633Z,3.47
2019-01-12T11:19:18.645Z,3.30
2019-01-12T11:21:49.372Z,3.00
2019-01-12T11:24:20.194Z,3.30
2019-01-12T11:26:50.953Z,3.30
2019-01-12T11:29:21.722Z,2.33
2019-01-12T11:31:52.484Z,3.10
2019-01-12T11:34:23.262Z,4.37
2019-01-12T11:36:54.022Z,2.57
2019-01-12T11:39:24.807Z,2.90
2019-01-12T11:41:55.564Z,2.83
2019-01-12T11:44:26.335Z,2.53
2019-01-12T11:46:57.087Z,3.50
2019-01-12T11:49:27.873Z,3.20
2019-01-12T11:51:58.685Z,3.80
2019-01-12T11:54:29.475Z,3.30
2019-01-12T11:57:00.235Z,4.77
2019-01-12T11:59:30.995Z,4.00
2019-01-12T12:02:01.994Z,4.13
2019-01-12T12:04:33.238Z,4.80
2019-01-12T12:07:04.308Z,4.50
2019-01-12T12:09:35.048Z,4.70
2019-01-12T12:12:05.812Z,5.10
2019-01-12T12:14:36.588Z,6.23
2019-01-12T12:17:07.362Z,5.70
2019-01-12T12:19:38.118Z,5.53
2019-01-12T12:22:08.884Z,6.10
2019-01-12T12:24:39.651Z,6.77
2019-01-12T12:27:10.435Z,6.67
2019-01-12T12:29:41.194Z,6.77
2019-01-12T12:32:11.957Z,7.00
2019-01-12T12:34:42.719Z,7.00
2019-01-12T12:37:13.493Z,6.30
2019-01-12T12:39:44.257Z,8.80
2019-01-12T12:42:15.021Z,7.37
2019-01-12T12:44:45.781Z,7.17
2019-01-12T12:47:16.551Z,7.97
2019-01-12T12:49:47.308Z,7.80
2019-01-12T12:52:18.069Z,8.10
2019-01-12T12:54:48.822Z,7.20
2019-01-12T12:57:19.605Z,7.63
2019-01-12T12:59:50.353Z,7.80
2019-01-12T13:02:21.127Z,8.13
2019-01-12T13:04:51.885Z,7.17
2019-01-12T13:07:22.643Z,6.90
2019-01-12T13:09:53.395Z,7.70
2019-01-12T13:12:24.220Z,7.87
2019-01-12T13:14:54.984Z,8.00
2019-01-12T13:17:25.854Z,7.30
2019-01-12T13:19:56.604Z,9.30
2019-01-12T13:22:27.376Z,6.53
2019-01-12T13:24:58.124Z,7.20
2019-01-12T13:27:28.884Z,8.37
2019-01-12T13:29:59.662Z,7.30
2019-01-12T13:32:30.531Z,8.07
2019-01-12T13:35:01.297Z,6.80
2019-01-12T13:37:32.066Z,6.50
2019-01-12T13:40:09.253Z,8.10
2019-01-12T13:42:40.047Z,8.05
2019-01-12T13:45:13.502Z,7.07
2019-01-12T13:47:44.274Z,7.53
2019-01-12T13:50:17.649Z,8.87
2019-01-12T13:52:48.429Z,7.33
2019-01-12T13:55:19.292Z,7.50
2019-01-12T13:57:50.063Z,7.40
2019-01-12T14:00:24.229Z,7.60
2019-01-12T14:02:55.204Z,7.37
2019-01-12T14:05:26.066Z,7.60
2019-01-12T14:07:57.047Z,6.60
2019-01-12T14:10:27.805Z,6.43
2019-01-12T14:12:58.642Z,8.33
2019-01-12T14:15:29.401Z,7.07
2019-01-12T14:18:00.172Z,5.33
2019-01-12T14:20:33.333Z,5.60
2019-01-12T14:23:04.120Z,6.17
2019-01-12T14:25:34.868Z,6.73
2019-01-12T14:28:05.722Z,5.77
2019-01-12T14:30:36.488Z,5.50
2019-01-12T14:33:07.258Z,6.30
2019-01-12T14:35:38.217Z,5.60
2019-01-12T14:38:09.009Z,6.47
2019-01-12T14:40:39.772Z,6.43
2019-01-12T14:43:10.554Z,6.57
2019-01-12T14:45:41.316Z,6.00
2019-01-12T14:48:12.083Z,7.33
2019-01-12T14:50:42.842Z,6.50
2019-01-12T14:53:13.601Z,5.97
2019-01-12T14:55:44.359Z,6.00
2019-01-12T14:58:15.133Z,7.10
2019-01-12T15:00:45.915Z,6.43
2019-01-12T15:03:16.689Z,6.50
2019-01-12T15:05:47.431Z,6.10
2019-01-12T15:08:18.212Z,6.30
2019-01-12T15:10:48.977Z,6.50
2019-01-12T15:13:19.763Z,7.90
2019-01-12T15:15:50.518Z,7.10
2019-01-12T15:18:21.290Z,6.60
2019-01-12T15:20:52.072Z,8.10
2019-01-12T15:23:22.847Z,7.20
2019-01-12T15:25:53.617Z,7.33
2019-01-12T15:28:24.405Z,7.67
2019-01-12T15:30:55.185Z,7.70
2019-01-12T15:33:25.936Z,7.03
2019-01-12T15:35:56.800Z,6.90
2019-01-12T15:38:27.585Z,6.90
2019-01-12T15:40:58.355Z,7.23
2019-01-12T15:43:29.107Z,8.03
2019-01-12T15:45:59.872Z,8.00
2019-01-12T15:48:30.630Z,8.10
2019-01-12T15:51:01.425Z,7.43
2019-01-12T15:53:32.180Z,8.03
2019-01-12T15:56:03.259Z,9.13
2019-01-12T15:58:34.024Z,7.25
2019-01-12T16:01:04.799Z,8.57
2019-01-12T16:03:35.555Z,7.63
2019-01-12T16:06:06.319Z,7.93
2019-01-12T16:08:37.088Z,6.97
2019-01-12T16:11:07.858Z,8.17
2019-01-12T16:13:38.644Z,7.40
2019-01-12T16:16:09.446Z,8.00
2019-01-12T16:18:40.205Z,7.73
2019-01-12T16:21:11.083Z,7.10
2019-01-12T16:23:41.889Z,8.57
2019-01-12T16:26:12.652Z,6.97
2019-01-12T16:28:43.412Z,8.60
2019-01-12T16:31:14.175Z,7.80
2019-01-12T16:33:44.940Z,7.10
2019-01-12T16:36:15.688Z,8.20
2019-01-12T16:38:46.472Z,7.70
2019-01-12T16:41:18.678Z,7.40
2019-01-12T16:43:49.501Z,6.50
2019-01-12T16:46:20.284Z,8.00
2019-01-12T16:48:51.156Z,8.23
2019-01-12T16:51:21.906Z,8.20
2019-01-12T16:53:52.662Z,7.70
2019-01-12T16:56:23.428Z,8.50
2019-01-12T16:58:54.186Z,11.50
2019-01-12T17:01:24.955Z,8.50
2019-01-12T17:03:55.706Z,8.10
2019-01-12T17:06:26.487Z,8.90
2019-01-12T17:08:57.282Z,8.23
2019-01-12T17:11:28.051Z,8.80
2019-01-12T17:14:01.859Z,8.97
2019-01-12T17:16:32.633Z,7.60
2019-01-12T17:19:03.726Z,11.10
2019-01-12T17:21:34.517Z,8.75
2019-01-12T17:24:05.269Z,10.80
2019-01-12T17:26:36.030Z,8.27
2019-01-12T17:29:06.797Z,7.00
2019-01-12T17:31:37.571Z,8.17
2019-01-12T17:34:08.331Z,9.87
2019-01-12T17:36:39.120Z,9.63
2019-01-12T17:39:09.873Z,8.70
2019-01-12T17:41:40.647Z,8.73
2019-01-12T17:44:11.423Z,8.63
2019-01-12T17:46:42.178Z,8.17
2019-01-12T17:49:12.926Z,9.67
2019-01-12T17:51:43.802Z,9.00
2019-01-12T17:54:14.554Z,8.40
2019-01-12T17:56:45.319Z,8.80
2019-01-12T17:59:16.079Z,8.73
2019-01-12T18:01:46.845Z,9.13
2019-01-12T18:04:17.602Z,7.70
2019-01-12T18:06:48.416Z,8.20
2019-01-12T18:09:19.171Z,10.03
2019-01-12T18:11:49.932Z,8.10
2019-01-12T18:14:20.693Z,10.50
2019-01-12T18:16:51.459Z,7.70
2019-01-12T18:19:22.214Z,8.20
2019-01-12T18:21:52.992Z,6.70
2019-01-12T18:24:23.773Z,8.80
2019-01-12T18:26:54.545Z,8.00
2019-01-12T18:29:25.314Z,8.80
2019-01-12T18:31:56.070Z,9.83
2019-01-12T18:34:26.843Z,7.70
2019-01-12T18:36:57.605Z,7.93
2019-01-12T18:39:28.395Z,8.60
2019-01-12T18:41:59.162Z,8.83
2019-01-12T18:44:29.935Z,8.97
2019-01-12T18:47:00.706Z,7.17
2019-01-12T18:49:31.489Z,8.30
2019-01-12T18:52:02.487Z,8.43
2019-01-12T18:54:33.244Z,8.00
2019-01-12T18:57:04.000Z,8.00
2019-01-12T18:59:34.773Z,7.40
2019-01-12T19:02:05.522Z,8.50
2019-01-12T19:04:36.296Z,8.80
2019-01-12T19:07:07.051Z,7.67
2019-01-12T19:09:38.447Z,7.37
2019-01-12T19:12:09.283Z,7.72
2019-01-12T19:14:40.056Z,9.40
2019-01-12T19:17:10.836Z,8.00
2019-01-12T19:19:41.592Z,8.70
2019-01-12T19:22:12.347Z,7.37
2019-01-12T19:24:43.125Z,6.90
2019-01-12T19:27:13.882Z,7.20
2019-01-12T19:29:44.660Z,6.20
2019-01-12T19:32:15.414Z,6.53
2019-01-12T19:34:46.191Z,6.00
2019-01-12T19:37:16.965Z,5.93
2019-01-12T19:39:47.740Z,6.07
2019-01-12T19:42:18.503Z,5.53
2019-01-12T19:44:49.270Z,6.40
2019-01-12T19:47:20.063Z,5.07
2019-01-12T19:49:50.807Z,5.20
2019-01-12T19:52:21.570Z,5.07
2019-01-12T19:54:52.334Z,5.30
2019-01-12T19:57:23.090Z,5.27
2019-01-12T19:59:53.875Z,5.17
2019-01-12T20:02:24.651Z,4.53
2019-01-12T20:04:55.413Z,4.90
2019-01-12T20:07:26.173Z,4.77
2019-01-12T20:09:56.987Z,5.17
2019-01-12T20:12:27.741Z,3.80
2019-01-12T20:14:58.519Z,4.17
2019-01-12T20:17:29.275Z,3.63
2019-01-12T20:20:00.046Z,3.63
2019-01-12T20:22:30.957Z,3.40
2019-01-12T20:25:02.134Z,3.40
2019-01-12T20:27:33.668Z,3.95
2019-01-12T20:30:08.485Z,3.37
2019-01-12T20:32:43.052Z,3.87
2019-01-12T20:35:17.631Z,4.05
2019-01-12T20:38:01.014Z,3.62
2019-01-12T20:40:44.481Z,4.42
2019-01-12T20:43:33.933Z,3.80
2019-01-12T20:46:20.230Z,4.15
2019-01-12T20:49:01.035Z,4.10
2019-01-12T20:51:50.799Z,3.40
2019-01-12T20:54:54.323Z,3.17
2019-01-12T20:57:37.666Z,3.22
2019-01-12T21:00:41.504Z,3.05
2019-01-12T21:03:31.069Z,2.65
2019-01-12T21:06:22.420Z,3.17
2019-01-12T21:09:25.966Z,2.90
2019-01-12T21:12:12.831Z,4.03
2019-01-12T21:14:50.232Z,3.10
2019-01-12T21:17:20.997Z,4.40
2019-01-12T21:19:51.752Z,2.50
2019-01-12T21:22:22.722Z,3.20
2019-01-12T21:24:53.486Z,3.83
2019-01-12T21:27:24.281Z,2.07
2019-01-12T21:29:55.091Z,2.80
2019-01-12T21:32:25.873Z,2.60
2019-01-12T21:34:56.623Z,3.13
2019-01-12T21:37:27.459Z,2.60
2019-01-12T21:39:58.196Z,2.77
2019-01-12T21:42:28.972Z,2.30
2019-01-12T21:44:59.727Z,2.37
2019-01-12T21:47:30.496Z,2.47
2019-01-12T21:50:01.351Z,1.97
2019-01-12T21:52:32.152Z,2.40
2019-01-12T21:55:05.016Z,2.10
2019-01-12T21:57:35.785Z,2.37
2019-01-12T22:00:10.344Z,1.50
2019-01-12T22:02:41.423Z,1.87
2019-01-12T22:05:12.394Z,1.90
2019-01-12T22:07:43.176Z,2.17
2019-01-12T22:10:19.368Z,2.00
2019-01-12T22:12:47.913Z,1.98
2019-01-12T22:15:18.683Z,2.30
2019-01-12T22:17:49.458Z,1.90
2019-01-12T22:20:20.223Z,2.13
2019-01-12T22:22:51.002Z,2.00
2019-01-12T22:25:21.747Z,1.93
2019-01-12T22:27:52.523Z,1.77
2019-01-12T22:30:23.277Z,1.67
2019-01-12T22:32:54.043Z,1.63
2019-01-12T22:35:24.797Z,1.50
2019-01-12T22:37:55.595Z,1.30
2019-01-12T22:40:26.363Z,1.47
2019-01-12T22:42:57.153Z,2.50
2019-01-12T22:45:27.910Z,1.53
2019-01-12T22:47:58.671Z,1.57
2019-01-12T22:50:29.444Z,1.70
2019-01-12T22:53:00.222Z,1.93
2019-01-12T22:55:31.002Z,1.40
2019-01-12T22:58:01.870Z,1.50
2019-01-12T23:00:47.216Z,1.60
2019-01-12T23:03:17.982Z,1.60
2019-01-12T23:05:48.751Z,1.70
2019-01-12T23:08:19.528Z,3.20
2019-01-12T23:10:50.288Z,2.17
2019-01-12T23:13:21.339Z,1.40
2019-01-12T23:15:52.117Z,1.37
2019-01-12T23:18:23.214Z,1.60
2019-01-12T23:20:54.024Z,1.52
2019-01-12T23:23:24.741Z,1.57
2019-01-12T23:25:55.533Z,1.30
2019-01-12T23:28:26.272Z,1.60
2019-01-12T23:30:57.065Z,1.30
2019-01-12T23:33:27.917Z,1.13
2019-01-12T23:35:58.682Z,1.37
2019-01-12T23:38:29.446Z,1.20
2019-01-12T23:41:00.223Z,1.23
2019-01-12T23:43:30.991Z,1.20
2019-01-12T23:46:01.779Z,1.50
2019-01-12T23:48:32.535Z,1.60
2019-01-12T23:51:03.510Z,1.70
2019-01-12T23:53:34.275Z,1.27
2019-01-12T23:56:05.057Z,1.40
2019-01-12T23:58:35.839Z,1.10
